sensor_id;sensor_type;location;lat;lon;timestamp;pressure;altitude;pressure_sealevel;temperature;humidity
4410;BME280;2218;51.408;7.208;2023-11-18T00:00:57;100554.41;;;18.16;38.68
4410;BME280;2218;51.408;7.208;2023-11-18T00:03:25;100557.16;;;18.13;38.80
4410;BME280;2218;51.408;7.208;2023-11-18T00:05:52;100554.41;;;18.16;38.67
4410;BME280;2218;51.408;7.208;2023-11-18T00:08:19;100556.22;;;18.14;38.94
4410;BME280;2218;51.408;7.208;2023-11-18T00:10:47;100559.81;;;18.13;38.82
4410;BME280;2218;51.408;7.208;2023-11-18T00:13:14;100556.22;;;18.14;39.01
4410;BME280;2218;51.408;7.208;2023-11-18T00:15:41;100553.69;;;18.13;38.99
4410;BME280;2218;51.408;7.208;2023-11-18T00:18:11;100558.09;;;18.12;39.19
4410;BME280;2218;51.408;7.208;2023-11-18T00:20:38;100554.72;;;18.10;39.17
4410;BME280;2218;51.408;7.208;2023-11-18T00:23:05;100560.81;;;18.11;39.24
4410;BME280;2218;51.408;7.208;2023-11-18T00:25:32;100561.72;;;18.09;39.07
4410;BME280;2218;51.408;7.208;2023-11-18T00:28:02;100564.34;;;18.09;38.96
4410;BME280;2218;51.408;7.208;2023-11-18T00:30:29;100558.25;;;18.09;39.09
4410;BME280;2218;51.408;7.208;2023-11-18T00:32:56;100551.28;;;18.08;38.72
4410;BME280;2218;51.408;7.208;2023-11-18T00:35:25;100549.59;;;18.07;39.07
4410;BME280;2218;51.408;7.208;2023-11-18T00:37:52;100549.69;;;18.05;39.31
4410;BME280;2218;51.408;7.208;2023-11-18T00:40:19;100547.91;;;18.06;38.81
4410;BME280;2218;51.408;7.208;2023-11-18T00:42:46;100540.00;;;18.06;39.17
4410;BME280;2218;51.408;7.208;2023-11-18T00:45:14;100541.78;;;18.05;39.28
4410;BME280;2218;51.408;7.208;2023-11-18T00:47:41;100539.22;;;18.04;38.95
4410;BME280;2218;51.408;7.208;2023-11-18T00:50:08;100537.53;;;18.03;39.09
4410;BME280;2218;51.408;7.208;2023-11-18T00:52:36;100538.47;;;18.02;38.89
4410;BME280;2218;51.408;7.208;2023-11-18T00:55:05;100532.34;;;18.01;39.12
4410;BME280;2218;51.408;7.208;2023-11-18T00:57:33;100524.47;;;18.01;39.33
4410;BME280;2218;51.408;7.208;2023-11-18T01:00:00;100518.34;;;18.01;39.43
4410;BME280;2218;51.408;7.208;2023-11-18T01:02:28;100525.31;;;18.02;39.11
4410;BME280;2218;51.408;7.208;2023-11-18T01:04:56;100516.56;;;18.01;39.03
4410;BME280;2218;51.408;7.208;2023-11-18T01:07:23;100517.50;;;18.00;39.29
4410;BME280;2218;51.408;7.208;2023-11-18T01:09:49;100517.50;;;18.00;38.88
4410;BME280;2218;51.408;7.208;2023-11-18T01:12:16;100520.19;;;17.99;38.97
4410;BME280;2218;51.408;7.208;2023-11-18T01:14:43;100529.88;;;17.98;38.91
4410;BME280;2218;51.408;7.208;2023-11-18T01:17:11;100523.75;;;17.98;39.29
4410;BME280;2218;51.408;7.208;2023-11-18T01:19:40;100523.69;;;17.99;39.01
4410;BME280;2218;51.408;7.208;2023-11-18T01:22:07;100529.94;;;17.97;39.00
4410;BME280;2218;51.408;7.208;2023-11-18T01:24:34;100532.59;;;17.97;39.08
4410;BME280;2218;51.408;7.208;2023-11-18T01:27:02;100539.63;;;17.96;38.76
4410;BME280;2218;51.408;7.208;2023-11-18T01:29:29;100535.22;;;17.97;38.70
4410;BME280;2218;51.408;7.208;2023-11-18T01:31:56;100543.09;;;17.97;38.97
4410;BME280;2218;51.408;7.208;2023-11-18T01:34:24;100549.34;;;17.94;39.01
4410;BME280;2218;51.408;7.208;2023-11-18T01:36:52;100551.09;;;17.95;38.92
4410;BME280;2218;51.408;7.208;2023-11-18T01:39:19;100557.34;;;17.93;38.91
4410;BME280;2218;51.408;7.208;2023-11-18T01:41:46;100556.41;;;17.94;38.61
4410;BME280;2218;51.408;7.208;2023-11-18T01:44:14;100563.44;;;17.93;38.99
4410;BME280;2218;51.408;7.208;2023-11-18T01:46:42;100562.69;;;17.91;38.99
4410;BME280;2218;51.408;7.208;2023-11-18T01:49:11;100553.94;;;17.91;38.96
4410;BME280;2218;51.408;7.208;2023-11-18T01:51:40;100564.47;;;17.91;38.63
4410;BME280;2218;51.408;7.208;2023-11-18T01:54:10;100556.63;;;17.89;38.94
4410;BME280;2218;51.408;7.208;2023-11-18T01:56:41;100561.03;;;17.89;38.80
4410;BME280;2218;51.408;7.208;2023-11-18T01:59:09;100562.91;;;17.87;38.94
4410;BME280;2218;51.408;7.208;2023-11-18T02:01:46;100557.66;;;17.87;39.03
4410;BME280;2218;51.408;7.208;2023-11-18T02:04:16;100556.81;;;17.86;39.23
4410;BME280;2218;51.408;7.208;2023-11-18T02:06:45;100556.81;;;17.86;39.06
4410;BME280;2218;51.408;7.208;2023-11-18T02:09:15;100550.69;;;17.86;39.06
4410;BME280;2218;51.408;7.208;2023-11-18T02:11:53;100553.31;;;17.86;38.87
4410;BME280;2218;51.408;7.208;2023-11-18T02:14:26;100551.53;;;17.86;38.85
4410;BME280;2218;51.408;7.208;2023-11-18T02:16:59;100545.44;;;17.86;38.78
4410;BME280;2218;51.408;7.208;2023-11-18T02:19:30;100539.28;;;17.85;38.67
4410;BME280;2218;51.408;7.208;2023-11-18T02:22:00;100538.31;;;17.88;39.21
4410;BME280;2218;51.408;7.208;2023-11-18T02:24:31;100536.44;;;17.90;38.96
4410;BME280;2218;51.408;7.208;2023-11-18T02:27:04;100536.16;;;17.96;38.60
4410;BME280;2218;51.408;7.208;2023-11-18T02:29:34;100527.09;;;18.01;38.50
4410;BME280;2218;51.408;7.208;2023-11-18T02:32:13;100536.53;;;18.05;38.41
4410;BME280;2218;51.408;7.208;2023-11-18T02:34:51;100530.09;;;18.11;38.44
4410;BME280;2218;51.408;7.208;2023-11-18T02:37:22;100523.75;;;18.15;37.92
4410;BME280;2218;51.408;7.208;2023-11-18T02:39:58;100529.78;;;18.17;37.94
4410;BME280;2218;51.408;7.208;2023-11-18T02:42:31;100524.38;;;18.20;38.14
4410;BME280;2218;51.408;7.208;2023-11-18T02:44:59;100532.19;;;18.22;37.99
4410;BME280;2218;51.408;7.208;2023-11-18T02:47:26;100527.75;;;18.22;38.09
4410;BME280;2218;51.408;7.208;2023-11-18T02:49:54;100523.19;;;18.26;37.70
4410;BME280;2218;51.408;7.208;2023-11-18T02:52:28;100526.59;;;18.28;37.92
4410;BME280;2218;51.408;7.208;2023-11-18T02:54:55;100526.59;;;18.28;38.19
4410;BME280;2218;51.408;7.208;2023-11-18T02:57:23;100527.44;;;18.28;37.89
4410;BME280;2218;51.408;7.208;2023-11-18T02:59:51;100524.75;;;18.30;38.17
4410;BME280;2218;51.408;7.208;2023-11-18T03:02:18;100522.97;;;18.30;37.88
4410;BME280;2218;51.408;7.208;2023-11-18T03:04:46;100536.13;;;18.30;37.80
4410;BME280;2218;51.408;7.208;2023-11-18T03:07:13;100537.81;;;18.31;37.94
4410;BME280;2218;51.408;7.208;2023-11-18T03:09:40;100533.41;;;18.32;37.68
4410;BME280;2218;51.408;7.208;2023-11-18T03:12:10;100529.06;;;18.31;37.88
4410;BME280;2218;51.408;7.208;2023-11-18T03:14:38;100519.47;;;18.30;37.97
4410;BME280;2218;51.408;7.208;2023-11-18T03:17:06;100517.69;;;18.30;37.93
4410;BME280;2218;51.408;7.208;2023-11-18T03:19:35;100509.81;;;18.30;37.86
4410;BME280;2218;51.408;7.208;2023-11-18T03:22:03;100505.44;;;18.29;38.28
4410;BME280;2218;51.408;7.208;2023-11-18T03:24:30;100496.72;;;18.29;37.95
4410;BME280;2218;51.408;7.208;2023-11-18T03:26:58;100496.72;;;18.29;38.14
4410;BME280;2218;51.408;7.208;2023-11-18T03:29:25;100492.28;;;18.29;38.13
4410;BME280;2218;51.408;7.208;2023-11-18T03:31:52;100484.41;;;18.29;37.93
4410;BME280;2218;51.408;7.208;2023-11-18T03:34:20;100486.19;;;18.29;38.08
4410;BME280;2218;51.408;7.208;2023-11-18T03:36:48;100483.63;;;18.27;37.98
4410;BME280;2218;51.408;7.208;2023-11-18T03:39:17;100480.91;;;18.29;37.92
4410;BME280;2218;51.408;7.208;2023-11-18T03:41:44;100482.69;;;18.28;38.10
4410;BME280;2218;51.408;7.208;2023-11-18T03:44:12;100479.13;;;18.29;38.08
4410;BME280;2218;51.408;7.208;2023-11-18T03:46:39;100485.34;;;18.28;37.93
4410;BME280;2218;51.408;7.208;2023-11-18T03:49:08;100489.66;;;18.29;38.08
4410;BME280;2218;51.408;7.208;2023-11-18T03:51:36;100480.06;;;18.28;37.80
4410;BME280;2218;51.408;7.208;2023-11-18T03:54:04;100480.91;;;18.29;37.86
4410;BME280;2218;51.408;7.208;2023-11-18T03:56:34;100491.44;;;18.29;37.88
4410;BME280;2218;51.408;7.208;2023-11-18T03:59:01;100494.91;;;18.29;38.25
4410;BME280;2218;51.408;7.208;2023-11-18T04:01:30;100497.56;;;18.29;38.08
4410;BME280;2218;51.408;7.208;2023-11-18T04:03:58;100500.19;;;18.29;38.02
4410;BME280;2218;51.408;7.208;2023-11-18T04:06:25;100498.44;;;18.30;37.74
4410;BME280;2218;51.408;7.208;2023-11-18T04:08:53;100502.81;;;18.29;37.99
4410;BME280;2218;51.408;7.208;2023-11-18T04:11:20;100502.81;;;18.29;37.90
4410;BME280;2218;51.408;7.208;2023-11-18T04:13:47;100494.06;;;18.29;38.24
4410;BME280;2218;51.408;7.208;2023-11-18T04:16:15;100496.72;;;18.29;37.89
4410;BME280;2218;51.408;7.208;2023-11-18T04:18:44;100512.50;;;18.29;38.04
4410;BME280;2218;51.408;7.208;2023-11-18T04:21:12;100506.38;;;18.28;37.89
4410;BME280;2218;51.408;7.208;2023-11-18T04:23:42;100502.81;;;18.29;37.95
4410;BME280;2218;51.408;7.208;2023-11-18T04:26:13;100501.13;;;18.28;38.14
4410;BME280;2218;51.408;7.208;2023-11-18T04:28:40;100496.72;;;18.29;37.68
4410;BME280;2218;51.408;7.208;2023-11-18T04:31:07;100487.97;;;18.28;37.92
4410;BME280;2218;51.408;7.208;2023-11-18T04:33:34;100481.75;;;18.29;37.86
4410;BME280;2218;51.408;7.208;2023-11-18T04:36:02;100479.13;;;18.29;38.01
4410;BME280;2218;51.408;7.208;2023-11-18T04:38:31;100474.81;;;18.28;37.99
4410;BME280;2218;51.408;7.208;2023-11-18T04:40:58;100474.81;;;18.28;38.01
4410;BME280;2218;51.408;7.208;2023-11-18T04:43:27;100469.53;;;18.28;37.71
4410;BME280;2218;51.408;7.208;2023-11-18T04:45:54;100464.28;;;18.28;38.03
4410;BME280;2218;51.408;7.208;2023-11-18T04:48:22;100455.44;;;18.29;37.90
4410;BME280;2218;51.408;7.208;2023-11-18T04:50:49;100445.88;;;18.28;38.13
4410;BME280;2218;51.408;7.208;2023-11-18T04:53:16;100433.56;;;18.29;38.12
4410;BME280;2218;51.408;7.208;2023-11-18T04:55:43;100434.41;;;18.29;37.99
4410;BME280;2218;51.408;7.208;2023-11-18T04:58:10;100440.59;;;18.28;37.83
4410;BME280;2218;51.408;7.208;2023-11-18T05:00:39;100439.66;;;18.29;37.68
4410;BME280;2218;51.408;7.208;2023-11-18T05:03:07;100432.72;;;18.28;38.12
4410;BME280;2218;51.408;7.208;2023-11-18T05:05:35;100423.03;;;18.29;38.17
4410;BME280;2218;51.408;7.208;2023-11-18T05:08:04;100428.28;;;18.29;38.24
4410;BME280;2218;51.408;7.208;2023-11-18T05:10:32;100422.19;;;18.28;38.12
4410;BME280;2218;51.408;7.208;2023-11-18T05:13:00;100423.03;;;18.29;38.03
4410;BME280;2218;51.408;7.208;2023-11-18T05:15:27;100418.63;;;18.29;37.96
4410;BME280;2218;51.408;7.208;2023-11-18T05:17:56;100412.50;;;18.29;38.21
4410;BME280;2218;51.408;7.208;2023-11-18T05:20:23;100404.63;;;18.29;37.95
4410;BME280;2218;51.408;7.208;2023-11-18T05:22:50;100397.56;;;18.29;37.77
4410;BME280;2218;51.408;7.208;2023-11-18T05:25:18;100394.94;;;18.29;37.97
4410;BME280;2218;51.408;7.208;2023-11-18T05:27:45;100398.50;;;18.28;38.29
4410;BME280;2218;51.408;7.208;2023-11-18T05:30:12;100393.25;;;18.28;37.86
4410;BME280;2218;51.408;7.208;2023-11-18T05:32:39;100388.81;;;18.29;37.70
4410;BME280;2218;51.408;7.208;2023-11-18T05:35:08;100378.31;;;18.29;38.17
4410;BME280;2218;51.408;7.208;2023-11-18T05:37:37;100376.59;;;18.28;38.03
4410;BME280;2218;51.408;7.208;2023-11-18T05:40:08;100386.19;;;18.29;38.06
4410;BME280;2218;51.408;7.208;2023-11-18T05:42:37;100392.31;;;18.29;38.25
4410;BME280;2218;51.408;7.208;2023-11-18T05:45:08;100394.94;;;18.29;38.03
4410;BME280;2218;51.408;7.208;2023-11-18T05:47:43;100386.19;;;18.29;37.99
4410;BME280;2218;51.408;7.208;2023-11-18T05:50:11;100388.81;;;18.29;38.25
4410;BME280;2218;51.408;7.208;2023-11-18T05:52:40;100395.88;;;18.28;38.26
4410;BME280;2218;51.408;7.208;2023-11-18T05:55:08;100392.31;;;18.29;38.00
4410;BME280;2218;51.408;7.208;2023-11-18T05:57:36;100397.56;;;18.29;38.09
4410;BME280;2218;51.408;7.208;2023-11-18T06:00:04;100408.09;;;18.29;38.12
4410;BME280;2218;51.408;7.208;2023-11-18T06:02:38;100397.56;;;18.29;38.11
4410;BME280;2218;51.408;7.208;2023-11-18T06:05:06;100397.56;;;18.29;38.17
4410;BME280;2218;51.408;7.208;2023-11-18T06:07:35;100401.97;;;18.29;38.30
4410;BME280;2218;51.408;7.208;2023-11-18T06:10:02;100390.53;;;18.30;37.97
4410;BME280;2218;51.408;7.208;2023-11-18T06:12:31;100387.03;;;18.29;37.85
4410;BME280;2218;51.408;7.208;2023-11-18T06:14:58;100381.78;;;18.29;38.00
4410;BME280;2218;51.408;7.208;2023-11-18T06:17:25;100380.09;;;18.28;38.06
4410;BME280;2218;51.408;7.208;2023-11-18T06:19:53;100387.03;;;18.29;38.19
4410;BME280;2218;51.408;7.208;2023-11-18T06:22:20;100383.56;;;18.29;38.28
4410;BME280;2218;51.408;7.208;2023-11-18T06:24:48;100385.34;;;18.28;37.97
4410;BME280;2218;51.408;7.208;2023-11-18T06:27:17;100370.41;;;18.29;38.37
4410;BME280;2218;51.408;7.208;2023-11-18T06:29:49;100369.56;;;18.28;38.21
4410;BME280;2218;51.408;7.208;2023-11-18T06:32:20;100369.56;;;18.28;38.25
4410;BME280;2218;51.408;7.208;2023-11-18T06:34:47;100366.00;;;18.29;37.85
4410;BME280;2218;51.408;7.208;2023-11-18T06:37:15;100369.50;;;18.30;38.01
4410;BME280;2218;51.408;7.208;2023-11-18T06:39:42;100380.09;;;18.28;38.28
4410;BME280;2218;51.408;7.208;2023-11-18T06:42:14;100373.88;;;18.29;38.22
4410;BME280;2218;51.408;7.208;2023-11-18T06:44:41;100370.41;;;18.29;38.19
4410;BME280;2218;51.408;7.208;2023-11-18T06:47:08;100363.34;;;18.29;37.96
4410;BME280;2218;51.408;7.208;2023-11-18T06:49:38;100364.22;;;18.30;38.49
4410;BME280;2218;51.408;7.208;2023-11-18T06:52:06;100373.88;;;18.29;38.55
4410;BME280;2218;51.408;7.208;2023-11-18T06:54:37;100366.00;;;18.29;38.35
4410;BME280;2218;51.408;7.208;2023-11-18T06:57:04;100372.13;;;18.30;38.22
4410;BME280;2218;51.408;7.208;2023-11-18T06:59:34;100373.88;;;18.29;38.52
4410;BME280;2218;51.408;7.208;2023-11-18T07:02:01;100370.41;;;18.29;38.22
4410;BME280;2218;51.408;7.208;2023-11-18T07:04:30;100370.41;;;18.29;38.14
4410;BME280;2218;51.408;7.208;2023-11-18T07:06:57;100379.16;;;18.29;38.42
4410;BME280;2218;51.408;7.208;2023-11-18T07:09:23;100372.13;;;18.30;38.41
4410;BME280;2218;51.408;7.208;2023-11-18T07:11:51;100370.41;;;18.29;38.27
4410;BME280;2218;51.408;7.208;2023-11-18T07:14:18;100377.41;;;18.30;38.48
4410;BME280;2218;51.408;7.208;2023-11-18T07:16:46;100374.81;;;18.28;38.36
4410;BME280;2218;51.408;7.208;2023-11-18T07:19:14;100387.91;;;18.30;38.27
4410;BME280;2218;51.408;7.208;2023-11-18T07:21:46;100381.78;;;18.29;38.18
4410;BME280;2218;51.408;7.208;2023-11-18T07:24:13;100394.03;;;18.30;38.41
4410;BME280;2218;51.408;7.208;2023-11-18T07:26:40;100381.78;;;18.29;38.28
4410;BME280;2218;51.408;7.208;2023-11-18T07:29:06;100389.66;;;18.29;38.78
4410;BME280;2218;51.408;7.208;2023-11-18T07:31:34;100390.53;;;18.30;38.28
4410;BME280;2218;51.408;7.208;2023-11-18T07:34:04;100385.28;;;18.30;38.57
4410;BME280;2218;51.408;7.208;2023-11-18T07:36:31;100392.31;;;18.29;38.45
4410;BME280;2218;51.408;7.208;2023-11-18T07:38:59;100394.03;;;18.30;38.46
4410;BME280;2218;51.408;7.208;2023-11-18T07:41:26;100387.81;;;18.31;38.42
4410;BME280;2218;51.408;7.208;2023-11-18T07:43:54;100390.53;;;18.30;38.35
4410;BME280;2218;51.408;7.208;2023-11-18T07:46:21;100389.66;;;18.29;38.86
4410;BME280;2218;51.408;7.208;2023-11-18T07:48:49;100382.66;;;18.30;38.80
4410;BME280;2218;51.408;7.208;2023-11-18T07:51:19;100364.22;;;18.30;38.70
4410;BME280;2218;51.408;7.208;2023-11-18T07:53:47;100357.19;;;18.30;38.58
4410;BME280;2218;51.408;7.208;2023-11-18T07:56:14;100348.50;;;18.28;38.51
4410;BME280;2218;51.408;7.208;2023-11-18T07:58:42;100366.00;;;18.29;38.73
4410;BME280;2218;51.408;7.208;2023-11-18T08:01:11;100361.59;;;18.30;38.62
4410;BME280;2218;51.408;7.208;2023-11-18T08:03:38;100344.94;;;18.29;38.44
4410;BME280;2218;51.408;7.208;2023-11-18T08:06:07;100345.81;;;18.30;38.60
4410;BME280;2218;51.408;7.208;2023-11-18T08:08:35;100345.81;;;18.30;38.63
4410;BME280;2218;51.408;7.208;2023-11-18T08:11:04;100335.28;;;18.30;38.84
4410;BME280;2218;51.408;7.208;2023-11-18T08:13:31;100341.41;;;18.30;38.57
4410;BME280;2218;51.408;7.208;2023-11-18T08:15:58;100346.66;;;18.30;38.79
4410;BME280;2218;51.408;7.208;2023-11-18T08:18:25;100355.47;;;18.29;38.69
4410;BME280;2218;51.408;7.208;2023-11-18T08:20:53;100358.97;;;18.30;38.57
4410;BME280;2218;51.408;7.208;2023-11-18T08:23:21;100367.72;;;18.30;38.65
4410;BME280;2218;51.408;7.208;2023-11-18T08:25:49;100370.34;;;18.30;38.67
4410;BME280;2218;51.408;7.208;2023-11-18T08:28:16;100367.72;;;18.30;38.83
4410;BME280;2218;51.408;7.208;2023-11-18T08:30:43;100381.72;;;18.31;38.62
4410;BME280;2218;51.408;7.208;2023-11-18T08:33:10;100376.44;;;18.31;38.58
4410;BME280;2218;51.408;7.208;2023-11-18T08:35:37;100372.97;;;18.30;39.04
4410;BME280;2218;51.408;7.208;2023-11-18T08:38:06;100373.81;;;18.31;38.92
4410;BME280;2218;51.408;7.208;2023-11-18T08:40:33;100374.66;;;18.31;38.84
4410;BME280;2218;51.408;7.208;2023-11-18T08:43:03;100372.97;;;18.30;38.64
4410;BME280;2218;51.408;7.208;2023-11-18T08:45:33;100373.81;;;18.31;38.90
4410;BME280;2218;51.408;7.208;2023-11-18T08:48:02;100367.72;;;18.30;39.09
4410;BME280;2218;51.408;7.208;2023-11-18T08:50:34;100358.88;;;18.31;38.82
4410;BME280;2218;51.408;7.208;2023-11-18T08:53:01;100362.34;;;18.32;38.92
4410;BME280;2218;51.408;7.208;2023-11-18T08:55:32;100352.78;;;18.31;38.94
4410;BME280;2218;51.408;7.208;2023-11-18T08:58:18;100342.25;;;18.31;38.98
4410;BME280;2218;51.408;7.208;2023-11-18T09:00:55;100343.09;;;18.31;39.17
4410;BME280;2218;51.408;7.208;2023-11-18T09:03:31;100337.81;;;18.31;39.03
4410;BME280;2218;51.408;7.208;2023-11-18T09:06:03;100333.41;;;18.32;39.11
4410;BME280;2218;51.408;7.208;2023-11-18T09:08:33;100339.63;;;18.31;39.07
4410;BME280;2218;51.408;7.208;2023-11-18T09:11:03;100335.19;;;18.31;39.13
4410;BME280;2218;51.408;7.208;2023-11-18T09:13:33;100343.09;;;18.31;39.11
4410;BME280;2218;51.408;7.208;2023-11-18T09:16:03;100332.56;;;18.31;39.08
4410;BME280;2218;51.408;7.208;2023-11-18T09:18:35;100329.94;;;18.31;38.92
4410;BME280;2218;51.408;7.208;2023-11-18T09:21:02;100322.88;;;18.32;39.13
4410;BME280;2218;51.408;7.208;2023-11-18T09:23:31;100329.00;;;18.32;39.31
4410;BME280;2218;51.408;7.208;2023-11-18T09:26:01;100316.78;;;18.31;39.21
4410;BME280;2218;51.408;7.208;2023-11-18T09:28:28;100308.88;;;18.31;39.28
4410;BME280;2218;51.408;7.208;2023-11-18T09:30:57;100313.19;;;18.32;39.44
4410;BME280;2218;51.408;7.208;2023-11-18T09:33:25;100307.09;;;18.32;39.33
4410;BME280;2218;51.408;7.208;2023-11-18T09:35:52;100308.88;;;18.31;39.05
4410;BME280;2218;51.408;7.208;2023-11-18T09:38:25;100303.63;;;18.31;39.46
4410;BME280;2218;51.408;7.208;2023-11-18T09:40:55;100312.25;;;18.33;39.20
4410;BME280;2218;51.408;7.208;2023-11-18T09:43:24;100301.00;;;18.31;39.15
4410;BME280;2218;51.408;7.208;2023-11-18T09:45:56;100307.09;;;18.32;39.36
4410;BME280;2218;51.408;7.208;2023-11-18T09:48:27;100307.94;;;18.32;39.49
4410;BME280;2218;51.408;7.208;2023-11-18T09:50:58;100305.31;;;18.32;39.43
4410;BME280;2218;51.408;7.208;2023-11-18T09:53:31;100295.72;;;18.31;39.55
4410;BME280;2218;51.408;7.208;2023-11-18T09:56:10;100303.63;;;18.31;39.26
4410;BME280;2218;51.408;7.208;2023-11-18T09:58:56;100306.25;;;18.31;39.64
4410;BME280;2218;51.408;7.208;2023-11-18T10:01:28;100311.50;;;18.31;39.43
4410;BME280;2218;51.408;7.208;2023-11-18T10:03:59;100305.31;;;18.32;39.25
4410;BME280;2218;51.408;7.208;2023-11-18T10:06:34;100307.94;;;18.32;39.63
4410;BME280;2218;51.408;7.208;2023-11-18T10:09:03;100310.56;;;18.32;39.79
4410;BME280;2218;51.408;7.208;2023-11-18T10:11:42;100306.25;;;18.31;39.68
4410;BME280;2218;51.408;7.208;2023-11-18T10:14:13;100306.25;;;18.31;39.38
4410;BME280;2218;51.408;7.208;2023-11-18T10:16:44;100306.25;;;18.31;39.49
4410;BME280;2218;51.408;7.208;2023-11-18T10:19:13;100290.47;;;18.31;39.42
4410;BME280;2218;51.408;7.208;2023-11-18T10:21:43;100272.03;;;18.31;39.81
4410;BME280;2218;51.408;7.208;2023-11-18T10:24:14;100267.63;;;18.32;39.30
4410;BME280;2218;51.408;7.208;2023-11-18T10:26:54;100263.31;;;18.31;39.69
4410;BME280;2218;51.408;7.208;2023-11-18T10:29:23;100254.56;;;18.30;39.43
4410;BME280;2218;51.408;7.208;2023-11-18T10:32:05;100253.63;;;18.31;39.46
4410;BME280;2218;51.408;7.208;2023-11-18T10:34:35;100250.06;;;18.32;39.72
4410;BME280;2218;51.408;7.208;2023-11-18T10:37:03;100245.72;;;18.31;39.47
4410;BME280;2218;51.408;7.208;2023-11-18T10:39:32;100239.53;;;18.32;39.76
4410;BME280;2218;51.408;7.208;2023-11-18T10:42:01;100237.84;;;18.31;39.69
4410;BME280;2218;51.408;7.208;2023-11-18T10:44:29;100232.56;;;18.31;39.82
4410;BME280;2218;51.408;7.208;2023-11-18T10:46:56;100233.41;;;18.32;39.77
4410;BME280;2218;51.408;7.208;2023-11-18T10:49:27;100218.47;;;18.32;39.83
4410;BME280;2218;51.408;7.208;2023-11-18T10:51:55;100225.53;;;18.32;39.74
4410;BME280;2218;51.408;7.208;2023-11-18T10:54:23;100218.47;;;18.32;39.67
4410;BME280;2218;51.408;7.208;2023-11-18T10:56:53;100208.91;;;18.31;39.84
4410;BME280;2218;51.408;7.208;2023-11-18T10:59:22;100197.44;;;18.32;39.99
4410;BME280;2218;51.408;7.208;2023-11-18T11:01:51;100195.75;;;18.31;39.98
4410;BME280;2218;51.408;7.208;2023-11-18T11:04:18;100187.84;;;18.31;39.96
4410;BME280;2218;51.408;7.208;2023-11-18T11:06:49;100191.41;;;18.30;40.15
4410;BME280;2218;51.408;7.208;2023-11-18T11:09:23;100190.47;;;18.31;40.07
4410;BME280;2218;51.408;7.208;2023-11-18T11:11:55;100178.16;;;18.32;39.99
4410;BME280;2218;51.408;7.208;2023-11-18T11:14:34;100161.53;;;18.31;40.16
4410;BME280;2218;51.408;7.208;2023-11-18T11:17:06;100163.31;;;18.31;39.90
4410;BME280;2218;51.408;7.208;2023-11-18T11:19:49;100167.63;;;18.32;40.16
4410;BME280;2218;51.408;7.208;2023-11-18T11:22:32;100156.28;;;18.31;40.30
4410;BME280;2218;51.408;7.208;2023-11-18T11:25:14;100160.59;;;18.32;40.15
4410;BME280;2218;51.408;7.208;2023-11-18T11:28:04;100153.63;;;18.31;40.01
4410;BME280;2218;51.408;7.208;2023-11-18T11:30:44;100157.97;;;18.32;40.46
4410;BME280;2218;51.408;7.208;2023-11-18T11:33:22;100150.06;;;18.32;40.09
4410;BME280;2218;51.408;7.208;2023-11-18T11:35:55;100157.97;;;18.32;40.22
4410;BME280;2218;51.408;7.208;2023-11-18T11:38:25;100165.84;;;18.32;40.65
4410;BME280;2218;51.408;7.208;2023-11-18T11:40:55;100164.91;;;18.33;40.30
4410;BME280;2218;51.408;7.208;2023-11-18T11:43:24;100159.75;;;18.32;40.21
4410;BME280;2218;51.408;7.208;2023-11-18T11:45:54;100157.97;;;18.32;40.33
4410;BME280;2218;51.408;7.208;2023-11-18T11:48:23;100157.97;;;18.32;40.45
4410;BME280;2218;51.408;7.208;2023-11-18T11:51:18;100160.59;;;18.32;40.51
4410;BME280;2218;51.408;7.208;2023-11-18T11:53:57;100156.16;;;18.33;40.59
4410;BME280;2218;51.408;7.208;2023-11-18T11:56:39;100168.47;;;18.32;40.74
4410;BME280;2218;51.408;7.208;2023-11-18T11:59:07;100159.75;;;18.32;40.42
4410;BME280;2218;51.408;7.208;2023-11-18T12:01:37;100151.00;;;18.31;40.49
4410;BME280;2218;51.408;7.208;2023-11-18T12:04:09;100150.06;;;18.32;40.46
4410;BME280;2218;51.408;7.208;2023-11-18T12:06:48;100150.06;;;18.32;40.84
4410;BME280;2218;51.408;7.208;2023-11-18T12:09:20;100155.31;;;18.32;40.62
4410;BME280;2218;51.408;7.208;2023-11-18T12:11:48;100157.97;;;18.32;40.57
4410;BME280;2218;51.408;7.208;2023-11-18T12:14:16;100156.16;;;18.33;40.62
4410;BME280;2218;51.408;7.208;2023-11-18T12:17:05;100151.75;;;18.33;40.77
4410;BME280;2218;51.408;7.208;2023-11-18T12:19:37;100150.06;;;18.32;40.47
4410;BME280;2218;51.408;7.208;2023-11-18T12:22:12;100142.06;;;18.34;40.82
4410;BME280;2218;51.408;7.208;2023-11-18T12:25:32;100143.84;;;18.33;41.02
4410;BME280;2218;51.408;7.208;2023-11-18T12:28:15;100139.53;;;18.32;40.91
4410;BME280;2218;51.408;7.208;2023-11-18T12:30:45;100118.50;;;18.32;40.84
4410;BME280;2218;51.408;7.208;2023-11-18T12:34:01;100104.38;;;18.33;41.16
4410;BME280;2218;51.408;7.208;2023-11-18T12:37:22;100080.72;;;18.33;40.87
4410;BME280;2218;51.408;7.208;2023-11-18T12:40:49;100069.34;;;18.33;41.20
4410;BME280;2218;51.408;7.208;2023-11-18T12:43:46;100062.28;;;18.33;40.97
4410;BME280;2218;51.408;7.208;2023-11-18T12:46:49;100059.66;;;18.33;41.07
4410;BME280;2218;51.408;7.208;2023-11-18T12:49:23;100057.03;;;18.33;41.22
4410;BME280;2218;51.408;7.208;2023-11-18T12:51:52;100057.03;;;18.33;41.41
4410;BME280;2218;51.408;7.208;2023-11-18T12:54:22;100044.72;;;18.34;41.10
4410;BME280;2218;51.408;7.208;2023-11-18T12:56:54;100041.25;;;18.33;41.70
4410;BME280;2218;51.408;7.208;2023-11-18T12:59:21;100033.34;;;18.33;41.33
4410;BME280;2218;51.408;7.208;2023-11-18T13:01:49;100034.19;;;18.34;41.66
4410;BME280;2218;51.408;7.208;2023-11-18T13:04:19;100025.47;;;18.33;41.48
4410;BME280;2218;51.408;7.208;2023-11-18T13:06:47;100018.50;;;18.32;41.54
4410;BME280;2218;51.408;7.208;2023-11-18T13:09:17;100014.94;;;18.33;41.72
4410;BME280;2218;51.408;7.208;2023-11-18T13:11:55;100005.25;;;18.34;41.63
4410;BME280;2218;51.408;7.208;2023-11-18T13:14:24;99999.16;;;18.33;41.55
4410;BME280;2218;51.408;7.208;2023-11-18T13:16:54;99993.88;;;18.33;41.33
4410;BME280;2218;51.408;7.208;2023-11-18T13:19:25;99986.00;;;18.33;41.64
4410;BME280;2218;51.408;7.208;2023-11-18T13:21:57;99986.00;;;18.33;41.82
4410;BME280;2218;51.408;7.208;2023-11-18T13:24:25;99978.09;;;18.33;41.74
4410;BME280;2218;51.408;7.208;2023-11-18T13:26:56;99973.78;;;18.32;41.62